sensor_id;sensor_type;location;lat;lon;timestamp;pressure;altitude;pressure_sealevel;temperature;humidity
53679;BME280;40119;52.030;4.708;2023-02-01T00:00:26;102060.42;;;2.32;62.61
53679;BME280;40119;52.030;4.708;2023-02-01T00:02:30;102049.54;;;3.35;59.30
53679;BME280;40119;52.030;4.708;2023-02-01T00:04:34;102049.79;;;1.75;63.88
53679;BME280;40119;52.030;4.708;2023-02-01T00:06:38;102057.69;;;2.97;61.68
53679;BME280;40119;52.030;4.708;2023-02-01T00:08:43;102065.09;;;2.32;61.37
53679;BME280;40119;52.030;4.708;2023-02-01T00:10:47;102063.40;;;2.10;61.17
53679;BME280;40119;52.030;4.708;2023-02-01T00:12:51;102063.52;;;1.32;65.95
53679;BME280;40119;52.030;4.708;2023-02-01T00:14:56;102059.18;;;3.10;60.50
53679;BME280;40119;52.030;4.708;2023-02-01T00:17:00;102052.41;;;3.67;59.50
53679;BME280;40119;52.030;4.708;2023-02-01T00:19:06;102056.43;;;3.95;59.80
53679;BME280;40119;52.030;4.708;2023-02-01T00:21:11;102055.64;;;1.32;65.71
53679;BME280;40119;52.030;4.708;2023-02-01T00:23:21;102058.79;;;3.68;61.18
53679;BME280;40119;52.030;4.708;2023-02-01T00:25:25;102064.84;;;1.95;62.82
53679;BME280;40119;52.030;4.708;2023-02-01T00:27:30;102064.47;;;1.26;65.82
53679;BME280;40119;52.030;4.708;2023-02-01T00:29:34;102058.24;;;3.69;61.54
53679;BME280;40119;52.030;4.708;2023-02-01T00:31:41;102054.79;;;2.93;60.13
53679;BME280;40119;52.030;4.708;2023-02-01T00:33:47;102058.71;;;1.61;64.74
53679;BME280;40119;52.030;4.708;2023-02-01T00:35:51;102055.75;;;2.21;62.31
53679;BME280;40119;52.030;4.708;2023-02-01T00:38:00;102058.82;;;1.92;62.54
53679;BME280;40119;52.030;4.708;2023-02-01T00:40:05;102050.07;;;2.50;61.19
53679;BME280;40119;52.030;4.708;2023-02-01T00:42:10;102062.47;;;2.30;62.77
53679;BME280;40119;52.030;4.708;2023-02-01T00:44:19;102057.75;;;2.10;62.42
53679;BME280;40119;52.030;4.708;2023-02-01T00:46:24;102057.20;;;2.60;60.77
53679;BME280;40119;52.030;4.708;2023-02-01T00:48:29;102061.65;;;2.65;59.72
53679;BME280;40119;52.030;4.708;2023-02-01T00:50:34;102060.27;;;4.44;56.47
53679;BME280;40119;52.030;4.708;2023-02-01T00:53:40;102052.08;;;1.04;65.75
53679;BME280;40119;52.030;4.708;2023-02-01T00:55:45;102046.73;;;1.12;68.35
53679;BME280;40119;52.030;4.708;2023-02-01T00:57:50;102035.67;;;1.62;66.69
53679;BME280;40119;52.030;4.708;2023-02-01T00:59:54;102026.53;;;1.24;67.25
53679;BME280;40119;52.030;4.708;2023-02-01T01:01:58;102025.37;;;1.95;65.75
53679;BME280;40119;52.030;4.708;2023-02-01T01:04:02;102025.62;;;1.92;66.59
53679;BME280;40119;52.030;4.708;2023-02-01T01:06:09;102021.08;;;1.10;67.19
53679;BME280;40119;52.030;4.708;2023-02-01T01:08:15;102027.38;;;1.72;67.49
53679;BME280;40119;52.030;4.708;2023-02-01T01:10:19;102027.75;;;1.99;65.42
53679;BME280;40119;52.030;4.708;2023-02-01T01:12:23;102030.78;;;3.14;63.05
53679;BME280;40119;52.030;4.708;2023-02-01T01:14:28;102042.22;;;2.15;64.67
53679;BME280;40119;52.030;4.708;2023-02-01T01:16:53;102040.46;;;1.66;66.20
53679;BME280;40119;52.030;4.708;2023-02-01T01:18:57;102026.55;;;2.86;63.07
53679;BME280;40119;52.030;4.708;2023-02-01T01:21:04;102031.51;;;2.16;63.63
53679;BME280;40119;52.030;4.708;2023-02-01T01:23:46;102034.49;;;1.55;67.11
53679;BME280;40119;52.030;4.708;2023-02-01T01:26:06;102026.69;;;2.46;64.05
53679;BME280;40119;52.030;4.708;2023-02-01T01:28:11;102024.39;;;1.93;64.31
53679;BME280;40119;52.030;4.708;2023-02-01T01:30:17;102034.48;;;2.80;62.89
53679;BME280;40119;52.030;4.708;2023-02-01T01:32:36;102033.20;;;4.48;58.75
53679;BME280;40119;52.030;4.708;2023-02-01T01:35:01;102040.05;;;1.97;64.77
53679;BME280;40119;52.030;4.708;2023-02-01T01:37:05;102041.11;;;2.60;63.49
53679;BME280;40119;52.030;4.708;2023-02-01T01:39:09;102034.98;;;2.39;63.42
53679;BME280;40119;52.030;4.708;2023-02-01T01:41:17;102033.13;;;2.95;62.58
53679;BME280;40119;52.030;4.708;2023-02-01T01:43:22;102027.90;;;1.70;66.58
53679;BME280;40119;52.030;4.708;2023-02-01T01:45:27;102034.29;;;1.59;68.62
53679;BME280;40119;52.030;4.708;2023-02-01T01:47:37;102037.59;;;1.86;68.93
53679;BME280;40119;52.030;4.708;2023-02-01T01:49:44;102040.81;;;2.74;67.19
53679;BME280;40119;52.030;4.708;2023-02-01T01:51:51;102037.50;;;2.58;64.88
53679;BME280;40119;52.030;4.708;2023-02-01T01:54:03;102035.52;;;1.83;68.61
53679;BME280;40119;52.030;4.708;2023-02-01T01:56:30;102025.46;;;1.91;68.25
53679;BME280;40119;52.030;4.708;2023-02-01T01:58:43;102023.18;;;4.40;62.74
53679;BME280;40119;52.030;4.708;2023-02-01T02:00:48;102034.72;;;1.98;68.36
53679;BME280;40119;52.030;4.708;2023-02-01T02:02:56;102028.66;;;1.98;71.84
53679;BME280;40119;52.030;4.708;2023-02-01T02:05:01;102017.82;;;2.43;69.41
53679;BME280;40119;52.030;4.708;2023-02-01T02:07:11;102013.42;;;2.71;68.11
53679;BME280;40119;52.030;4.708;2023-02-01T02:09:18;102011.71;;;2.46;67.14
53679;BME280;40119;52.030;4.708;2023-02-01T02:11:23;102012.68;;;2.20;68.02
53679;BME280;40119;52.030;4.708;2023-02-01T02:13:30;102015.58;;;2.00;69.42
53679;BME280;40119;52.030;4.708;2023-02-01T02:15:44;102018.92;;;2.50;66.42
53679;BME280;40119;52.030;4.708;2023-02-01T02:18:10;102012.19;;;2.43;66.84
53679;BME280;40119;52.030;4.708;2023-02-01T02:20:42;102006.90;;;3.10;67.02
53679;BME280;40119;52.030;4.708;2023-02-01T02:23:45;101993.58;;;2.28;68.38
53679;BME280;40119;52.030;4.708;2023-02-01T02:26:05;101991.72;;;2.42;65.74
53679;BME280;40119;52.030;4.708;2023-02-01T02:28:35;101984.45;;;2.57;66.90
53679;BME280;40119;52.030;4.708;2023-02-01T02:31:04;101986.73;;;3.47;64.99
53679;BME280;40119;52.030;4.708;2023-02-01T02:33:56;101984.77;;;1.97;66.96
53679;BME280;40119;52.030;4.708;2023-02-01T02:36:10;101993.16;;;4.62;61.16
53679;BME280;40119;52.030;4.708;2023-02-01T02:38:26;101988.61;;;3.54;65.11
53679;BME280;40119;52.030;4.708;2023-02-01T02:40:47;101993.47;;;3.04;65.21
53679;BME280;40119;52.030;4.708;2023-02-01T02:42:59;101993.53;;;3.48;63.03
53679;BME280;40119;52.030;4.708;2023-02-01T02:45:14;101989.09;;;3.25;63.16
53679;BME280;40119;52.030;4.708;2023-02-01T02:47:27;101998.37;;;3.07;65.53
53679;BME280;40119;52.030;4.708;2023-02-01T02:49:36;101999.22;;;3.58;64.74
53679;BME280;40119;52.030;4.708;2023-02-01T02:51:50;101983.19;;;3.43;63.16
53679;BME280;40119;52.030;4.708;2023-02-01T02:54:08;101987.01;;;2.19;67.01
53679;BME280;40119;52.030;4.708;2023-02-01T02:56:18;101978.90;;;3.58;63.63
53679;BME280;40119;52.030;4.708;2023-02-01T02:58:25;101973.41;;;2.52;65.31
53679;BME280;40119;52.030;4.708;2023-02-01T03:00:32;101956.54;;;4.11;61.42
53679;BME280;40119;52.030;4.708;2023-02-01T03:02:38;101962.43;;;2.95;64.53
53679;BME280;40119;52.030;4.708;2023-02-01T03:04:43;101966.87;;;1.84;66.07
53679;BME280;40119;52.030;4.708;2023-02-01T03:06:47;101951.22;;;3.06;64.18
53679;BME280;40119;52.030;4.708;2023-02-01T03:08:53;101948.03;;;1.65;68.60
53679;BME280;40119;52.030;4.708;2023-02-01T03:11:02;101955.62;;;2.93;64.38
53679;BME280;40119;52.030;4.708;2023-02-01T03:13:13;101951.54;;;2.32;70.09
53679;BME280;40119;52.030;4.708;2023-02-01T03:15:19;101949.37;;;2.50;67.30
53679;BME280;40119;52.030;4.708;2023-02-01T03:17:34;101956.60;;;2.06;67.71
53679;BME280;40119;52.030;4.708;2023-02-01T03:19:45;101954.62;;;2.15;68.38
53679;BME280;40119;52.030;4.708;2023-02-01T03:21:57;101957.64;;;1.34;69.86
53679;BME280;40119;52.030;4.708;2023-02-01T03:24:04;101949.37;;;2.73;67.10
53679;BME280;40119;52.030;4.708;2023-02-01T03:26:13;101963.83;;;1.27;71.20
53679;BME280;40119;52.030;4.708;2023-02-01T03:28:26;101961.98;;;4.86;60.27
53679;BME280;40119;52.030;4.708;2023-02-01T03:30:34;101967.01;;;1.78;69.71
53679;BME280;40119;52.030;4.708;2023-02-01T03:32:48;101956.58;;;1.02;71.46
53679;BME280;40119;52.030;4.708;2023-02-01T03:34:53;101954.97;;;1.06;72.78
53679;BME280;40119;52.030;4.708;2023-02-01T03:37:01;101960.72;;;1.01;74.00
53679;BME280;40119;52.030;4.708;2023-02-01T03:39:12;101957.91;;;2.86;68.49
53679;BME280;40119;52.030;4.708;2023-02-01T03:41:24;101962.15;;;2.09;70.19
53679;BME280;40119;52.030;4.708;2023-02-01T03:43:42;101960.24;;;2.79;68.79
53679;BME280;40119;52.030;4.708;2023-02-01T03:45:51;101962.73;;;2.33;67.13
53679;BME280;40119;52.030;4.708;2023-02-01T03:48:00;101963.79;;;2.07;69.40
53679;BME280;40119;52.030;4.708;2023-02-01T03:50:09;101965.12;;;3.36;64.89
53679;BME280;40119;52.030;4.708;2023-02-01T03:52:18;101958.97;;;2.63;67.39
53679;BME280;40119;52.030;4.708;2023-02-01T03:54:26;101958.82;;;2.32;67.94
53679;BME280;40119;52.030;4.708;2023-02-01T03:56:32;101961.73;;;2.68;66.97
53679;BME280;40119;52.030;4.708;2023-02-01T03:58:40;101963.20;;;1.38;70.16
53679;BME280;40119;52.030;4.708;2023-02-01T04:00:45;101960.49;;;2.75;66.53
53679;BME280;40119;52.030;4.708;2023-02-01T04:02:51;101966.22;;;1.64;70.02
53679;BME280;40119;52.030;4.708;2023-02-01T04:04:55;101972.50;;;2.11;69.04
53679;BME280;40119;52.030;4.708;2023-02-01T04:07:00;101965.86;;;2.52;66.51
53679;BME280;40119;52.030;4.708;2023-02-01T04:09:04;101964.04;;;2.57;64.27
53679;BME280;40119;52.030;4.708;2023-02-01T04:11:09;101963.09;;;1.84;68.28
53679;BME280;40119;52.030;4.708;2023-02-01T04:13:19;101969.48;;;3.78;63.00
53679;BME280;40119;52.030;4.708;2023-02-01T04:15:24;101968.40;;;3.78;61.71
53679;BME280;40119;52.030;4.708;2023-02-01T04:17:29;101963.46;;;2.14;65.99
53679;BME280;40119;52.030;4.708;2023-02-01T04:19:33;101977.96;;;2.58;64.80
53679;BME280;40119;52.030;4.708;2023-02-01T04:21:43;101987.60;;;3.07;66.68
53679;BME280;40119;52.030;4.708;2023-02-01T04:23:47;101974.62;;;1.85;70.49
53679;BME280;40119;52.030;4.708;2023-02-01T04:25:51;101969.02;;;3.67;65.13
53679;BME280;40119;52.030;4.708;2023-02-01T04:27:56;101970.13;;;2.96;65.00
53679;BME280;40119;52.030;4.708;2023-02-01T04:30:00;101955.91;;;3.82;63.28
53679;BME280;40119;52.030;4.708;2023-02-01T04:32:05;101963.71;;;0.89;71.61
53679;BME280;40119;52.030;4.708;2023-02-01T04:34:09;101964.23;;;2.29;69.08
53679;BME280;40119;52.030;4.708;2023-02-01T04:36:14;101961.81;;;2.88;66.89
53679;BME280;40119;52.030;4.708;2023-02-01T04:38:19;101955.53;;;2.98;65.35
53679;BME280;40119;52.030;4.708;2023-02-01T04:40:23;101950.61;;;2.09;67.69
53679;BME280;40119;52.030;4.708;2023-02-01T04:42:27;101956.94;;;1.92;68.93
53679;BME280;40119;52.030;4.708;2023-02-01T04:44:32;101953.10;;;2.03;67.98
53679;BME280;40119;52.030;4.708;2023-02-01T04:46:36;101951.37;;;3.02;65.75
53679;BME280;40119;52.030;4.708;2023-02-01T04:48:41;101954.49;;;2.70;65.42
53679;BME280;40119;52.030;4.708;2023-02-01T04:50:46;101956.29;;;1.30;71.90
53679;BME280;40119;52.030;4.708;2023-02-01T04:52:51;101952.45;;;3.25;65.61
53679;BME280;40119;52.030;4.708;2023-02-01T04:54:55;101954.72;;;1.94;70.76
53679;BME280;40119;52.030;4.708;2023-02-01T04:56:59;101958.04;;;1.62;71.93
53679;BME280;40119;52.030;4.708;2023-02-01T04:59:04;101957.00;;;2.15;68.44
53679;BME280;40119;52.030;4.708;2023-02-01T05:01:09;101956.12;;;2.41;70.61
53679;BME280;40119;52.030;4.708;2023-02-01T05:03:44;101949.12;;;2.24;70.08
53679;BME280;40119;52.030;4.708;2023-02-01T05:05:48;101944.57;;;2.21;69.18
53679;BME280;40119;52.030;4.708;2023-02-01T05:07:52;101951.20;;;1.64;71.48
53679;BME280;40119;52.030;4.708;2023-02-01T05:09:57;101950.94;;;3.62;66.79
53679;BME280;40119;52.030;4.708;2023-02-01T05:12:01;101955.22;;;1.49;69.93
53679;BME280;40119;52.030;4.708;2023-02-01T05:14:07;101945.85;;;3.94;64.86
53679;BME280;40119;52.030;4.708;2023-02-01T05:16:11;101955.82;;;2.83;65.58
53679;BME280;40119;52.030;4.708;2023-02-01T05:18:22;101950.93;;;1.37;71.16
53679;BME280;40119;52.030;4.708;2023-02-01T05:20:26;101961.87;;;1.40;70.21
53679;BME280;40119;52.030;4.708;2023-02-01T05:22:30;101965.83;;;3.42;65.90
53679;BME280;40119;52.030;4.708;2023-02-01T05:24:38;101961.26;;;1.67;67.85
53679;BME280;40119;52.030;4.708;2023-02-01T05:26:48;101966.92;;;1.81;68.91
53679;BME280;40119;52.030;4.708;2023-02-01T05:28:53;101968.85;;;3.64;65.49
53679;BME280;40119;52.030;4.708;2023-02-01T05:30:57;101971.78;;;3.72;66.12
53679;BME280;40119;52.030;4.708;2023-02-01T05:33:02;101973.98;;;3.05;66.97
53679;BME280;40119;52.030;4.708;2023-02-01T05:35:08;101973.06;;;2.03;68.64
53679;BME280;40119;52.030;4.708;2023-02-01T05:37:12;101976.38;;;3.62;65.99
53679;BME280;40119;52.030;4.708;2023-02-01T05:39:19;101976.13;;;1.17;74.02
53679;BME280;40119;52.030;4.708;2023-02-01T05:41:23;101954.86;;;2.91;69.82
53679;BME280;40119;52.030;4.708;2023-02-01T05:43:27;101963.90;;;1.02;75.29
53679;BME280;40119;52.030;4.708;2023-02-01T05:45:32;101969.74;;;2.95;69.47
53679;BME280;40119;52.030;4.708;2023-02-01T05:47:36;101967.38;;;2.45;69.34
53679;BME280;40119;52.030;4.708;2023-02-01T05:49:41;101971.62;;;2.00;69.80
53679;BME280;40119;52.030;4.708;2023-02-01T05:51:45;101964.75;;;2.77;67.54
53679;BME280;40119;52.030;4.708;2023-02-01T05:53:50;101970.52;;;2.60;70.15
53679;BME280;40119;52.030;4.708;2023-02-01T05:55:54;101976.86;;;2.65;66.61
53679;BME280;40119;52.030;4.708;2023-02-01T05:57:59;101972.15;;;1.59;70.30
53679;BME280;40119;52.030;4.708;2023-02-01T06:00:05;101974.52;;;1.22;73.66
53679;BME280;40119;52.030;4.708;2023-02-01T06:02:10;101978.23;;;2.78;68.44
53679;BME280;40119;52.030;4.708;2023-02-01T06:04:14;101973.80;;;2.58;69.14
53679;BME280;40119;52.030;4.708;2023-02-01T06:06:19;101979.31;;;3.32;67.54
53679;BME280;40119;52.030;4.708;2023-02-01T06:08:23;101983.77;;;1.36;74.09
53679;BME280;40119;52.030;4.708;2023-02-01T06:10:27;101985.26;;;2.19;70.49
53679;BME280;40119;52.030;4.708;2023-02-01T06:12:32;101982.46;;;3.08;67.75
53679;BME280;40119;52.030;4.708;2023-02-01T06:14:37;101980.85;;;0.92;73.59
53679;BME280;40119;52.030;4.708;2023-02-01T06:16:45;101982.03;;;1.61;72.69
53679;BME280;40119;52.030;4.708;2023-02-01T06:18:49;101986.92;;;1.98;72.48
53679;BME280;40119;52.030;4.708;2023-02-01T06:20:54;101990.18;;;2.43;70.43
53679;BME280;40119;52.030;4.708;2023-02-01T06:22:58;101991.87;;;4.23;65.57
53679;BME280;40119;52.030;4.708;2023-02-01T06:25:03;101996.80;;;1.48;69.99
53679;BME280;40119;52.030;4.708;2023-02-01T06:27:09;101994.36;;;1.31;73.32
53679;BME280;40119;52.030;4.708;2023-02-01T06:29:13;101985.11;;;2.27;71.56
53679;BME280;40119;52.030;4.708;2023-02-01T06:31:18;101988.20;;;3.20;66.69
53679;BME280;40119;52.030;4.708;2023-02-01T06:33:23;101979.20;;;2.38;69.49
53679;BME280;40119;52.030;4.708;2023-02-01T06:35:29;101991.21;;;1.85;72.29
53679;BME280;40119;52.030;4.708;2023-02-01T06:37:39;101990.93;;;2.78;69.87
53679;BME280;40119;52.030;4.708;2023-02-01T06:42:43;101984.88;;;2.74;69.39
53679;BME280;40119;52.030;4.708;2023-02-01T06:44:49;101985.78;;;2.04;70.44
53679;BME280;40119;52.030;4.708;2023-02-01T06:46:59;101990.70;;;1.55;73.03
53679;BME280;40119;52.030;4.708;2023-02-01T06:49:04;101981.69;;;1.87;71.36
53679;BME280;40119;52.030;4.708;2023-02-01T06:51:44;101985.38;;;0.96;72.47
53679;BME280;40119;52.030;4.708;2023-02-01T06:54:09;101988.15;;;2.12;71.52
53679;BME280;40119;52.030;4.708;2023-02-01T06:57:06;101984.22;;;3.33;66.14
53679;BME280;40119;52.030;4.708;2023-02-01T06:59:44;101981.08;;;3.37;64.98
53679;BME280;40119;52.030;4.708;2023-02-01T07:01:54;101979.25;;;2.13;67.49
53679;BME280;40119;52.030;4.708;2023-02-01T07:03:58;101983.77;;;1.75;69.66
53679;BME280;40119;52.030;4.708;2023-02-01T07:06:05;101982.24;;;1.10;71.76
53679;BME280;40119;52.030;4.708;2023-02-01T07:08:10;101984.41;;;1.83;71.04
53679;BME280;40119;52.030;4.708;2023-02-01T07:10:26;101984.61;;;2.07;70.64
53679;BME280;40119;52.030;4.708;2023-02-01T07:12:32;101986.52;;;2.43;68.08
53679;BME280;40119;52.030;4.708;2023-02-01T07:14:37;101992.66;;;1.66;69.34
53679;BME280;40119;52.030;4.708;2023-02-01T07:18:19;101989.57;;;2.30;67.84
53679;BME280;40119;52.030;4.708;2023-02-01T07:21:10;101988.43;;;3.94;63.13
53679;BME280;40119;52.030;4.708;2023-02-01T07:25:08;101991.22;;;2.03;70.24
53679;BME280;40119;52.030;4.708;2023-02-01T07:27:33;102004.15;;;0.96;72.80
53679;BME280;40119;52.030;4.708;2023-02-01T07:36:11;101994.01;;;3.60;66.87
53679;BME280;40119;52.030;4.708;2023-02-01T07:38:18;101998.38;;;1.34;72.78
53679;BME280;40119;52.030;4.708;2023-02-01T07:40:23;102003.26;;;2.59;69.93
53679;BME280;40119;52.030;4.708;2023-02-01T07:43:29;102010.21;;;2.20;69.65
53679;BME280;40119;52.030;4.708;2023-02-01T07:46:14;102010.61;;;3.54;69.10
53679;BME280;40119;52.030;4.708;2023-02-01T07:48:55;102011.66;;;2.97;66.07
53679;BME280;40119;52.030;4.708;2023-02-01T07:51:01;102018.06;;;1.56;72.09
53679;BME280;40119;52.030;4.708;2023-02-01T07:53:05;102026.78;;;2.09;72.88
53679;BME280;40119;52.030;4.708;2023-02-01T07:55:10;102021.88;;;1.97;71.10
53679;BME280;40119;52.030;4.708;2023-02-01T07:57:20;102031.14;;;2.07;72.16
53679;BME280;40119;52.030;4.708;2023-02-01T07:59:55;102017.76;;;2.26;70.81
53679;BME280;40119;52.030;4.708;2023-02-01T08:02:00;102025.54;;;1.15;73.07
53679;BME280;40119;52.030;4.708;2023-02-01T08:04:19;102026.07;;;2.12;71.21
53679;BME280;40119;52.030;4.708;2023-02-01T08:06:24;102018.48;;;1.57;73.53
53679;BME280;40119;52.030;4.708;2023-02-01T08:08:28;102022.75;;;1.41;73.78
53679;BME280;40119;52.030;4.708;2023-02-01T08:10:33;102024.31;;;1.04;76.75
53679;BME280;40119;52.030;4.708;2023-02-01T08:12:43;102015.01;;;2.04;75.08
53679;BME280;40119;52.030;4.708;2023-02-01T08:14:51;102009.97;;;1.92;74.30
53679;BME280;40119;52.030;4.708;2023-02-01T08:16:55;102007.65;;;2.72;73.27
53679;BME280;40119;52.030;4.708;2023-02-01T08:19:05;102010.79;;;1.04;76.34
53679;BME280;40119;52.030;4.708;2023-02-01T08:21:11;102002.01;;;1.60;75.61
53679;BME280;40119;52.030;4.708;2023-02-01T08:23:21;101997.84;;;1.66;74.11
53679;BME280;40119;52.030;4.708;2023-02-01T08:25:28;101999.73;;;1.93;74.68
